Latest Weather Observations for Deniliquin

IDN60801

Issued at 10:35 am EST Monday 20 April 2015 (issued every 30 minutes, with the page automatically refreshed every 10 minutes)

About weather observations | Map of weather stations | Latest weather observations for NSW | Other Formats
Station Details ID: 074258 Name: DENILIQUIN AIRPORT AWS Lat: -35.56 Lon: 144.95 Height: 94.0 m
Data from the previous 72 hours. | See also: Recent months at Deniliquin
Date/Time
EST
Temp
°C
App
Temp
°C
Dew
Point
Rel
Hum
%
Delta-T
°C
Wind Press
QNH
hPa
Press
MSL
hPa
Rain
since 9 am
mm
Dir
 
Spd
km/h
Gust
km/h
Spd
kts
Gust
kts
20/10:30am 13.5 6.6 2.4 47 4.8 S 28 35 15 19 1032.4 1032.3 0.0
20/10:00am 12.7 5.4 2.6 50 4.4 S 30 37 16 20 1032.6 1032.5 0.0
20/09:30am 11.9 4.6 2.6 53 4.1 S 30 39 16 21 1033.0 1032.9 0.0
20/09:00am 10.9 4.8 2.7 57 3.5 S 24 35 13 19 1033.2 1033.1 0.0
20/08:30am 9.5 4.3 3.3 65 2.7 S 20 28 11 15 1033.5 1033.4 0.0
20/08:00am 7.6 3.0 3.5 75 1.7 SSW 17 22 9 12 1033.3 1033.2 0.0
20/07:30am 5.3 0.1 2.7 83 1.1 SSW 19 22 10 12 1033.0 1032.9 0.0
20/07:00am 4.3 -0.9 2.2 86 0.8 SW 19 22 10 12 1032.7 1032.6 0.0
20/06:30am 4.4 -0.8 2.3 86 0.8 SSW 19 22 10 12 1032.6 1032.5 0.0
20/06:00am 4.4 -0.8 2.3 86 0.8 SSW 19 24 10 13 1032.4 1032.3 0.0
20/05:30am 4.7 -0.7 2.2 84 1.0 SSW 20 24 11 13 1032.2 1032.1 0.0
20/05:00am 4.5 -0.9 2.2 85 0.9 SSW 20 24 11 13 1032.1 1032.0 0.0
20/04:30am 4.8 -0.4 2.5 85 0.9 SSW 19 24 10 13 1032.0 1031.9 0.0
20/04:00am 5.0 -0.7 2.9 86 0.9 SSW 22 26 12 14 1031.6 1031.5 0.0
20/03:30am 5.1 -0.6 3.1 87 0.8 SW 22 26 12 14 1031.4 1031.3 0.0
20/03:00am 5.1 -0.2 3.1 87 0.8 SSW 20 24 11 13 1031.5 1031.4 0.0
20/02:30am 5.5 0.4 3.2 85 0.9 SSW 19 22 10 12 1031.9 1031.8 0.0
20/02:00am 5.9 0.9 3.4 84 1.0 SSW 19 22 10 12 1032.1 1032.0 0.0
20/01:30am 6.0 0.8 3.3 83 1.1 SSW 20 26 11 14 1032.0 1031.9 0.0
20/01:00am 6.4 1.8 3.6 82 1.2 SSW 17 24 9 13 1032.2 1032.1 0.0
20/12:30am 6.4 1.4 3.6 82 1.2 SW 19 26 10 14 1032.2 1032.1 0.0
20/12:00am 6.9 1.3 3.5 79 1.4 SW 22 28 12 15 1032.3 1032.2 0.0
 
Date/Time
EST
Temp
°C
App
Temp
°C
Dew
Point
Rel
Hum
%
Delta-T
°C
Wind Press
QNH
hPa
Press
MSL
hPa
Rain
since 9 am
mm
Dir
 
Spd
km/h
Gust
km/h
Spd
kts
Gust
kts
19/11:30pm 7.2 1.6 3.3 76 1.7 SW 22 28 12 15 1032.5 1032.4 0.0
19/11:00pm 7.8 2.1 3.1 72 2.0 SSW 22 30 12 16 1032.5 1032.4 0.0
19/10:30pm 8.4 3.1 2.8 68 2.4 SSW 20 28 11 15 1032.5 1032.4 0.0
19/10:00pm 8.4 3.1 3.1 69 2.2 SSW 20 26 11 14 1032.3 1032.2 0.0
19/09:30pm 8.8 3.1 2.8 66 2.6 SSW 22 28 12 15 1031.9 1031.8 0.0
19/09:00pm 9.0 3.0 3.2 67 2.5 SSW 24 30 13 16 1031.7 1031.6 0.0
19/08:30pm 9.9 3.4 2.5 60 3.2 SSW 26 33 14 18 1031.4 1031.3 0.0
19/08:00pm 10.0 3.9 2.6 60 3.1 SSW 24 35 13 19 1031.0 1030.9 0.0
19/07:30pm 10.6 3.7 2.4 57 3.5 SSW 28 37 15 20 1030.8 1030.7 0.0
19/07:00pm 10.7 4.3 3.0 59 3.3 SSW 26 37 14 20 1030.2 1030.1 0.0
19/06:30pm 11.0 5.0 3.5 60 3.3 SSW 24 32 13 17 1029.7 1029.6 0.0
19/06:00pm 11.5 5.5 3.3 57 3.6 SSW 24 33 13 18 1029.3 1029.2 0.0
19/05:30pm 12.4 4.6 2.0 49 4.5 S 32 41 17 22 1028.9 1028.8 0.0
19/05:01pm 13.0 3.7 0.7 43 5.2 S 39 57 21 31 1028.6 1028.5 0.0
19/05:00pm 13.2 3.9 0.6 42 5.3 S 39 50 21 27 1028.5 1028.4 0.0
19/04:30pm 14.3 5.3 2.2 44 5.3 S 39 54 21 29 1027.9 1027.8 0.0
19/04:22pm 14.4 6.5 2.0 43 5.5 S 33 54 18 29 1027.8 1027.7 0.0
19/04:00pm 15.4 7.7 2.2 41 5.9 S 32 44 17 24 1027.4 1027.2 0.0
19/03:41pm 14.5 6.8 2.1 43 5.5 S 32 50 17 27 1027.2 1027.0 0.0
19/03:30pm 15.9 8.0 2.0 39 6.2 SSW 33 44 18 24 1026.9 1026.7 0.0
19/03:00pm 15.9 7.9 1.6 38 6.3 SSW 33 50 18 27 1026.7 1026.5 0.0
19/02:30pm 16.3 8.7 2.7 40 6.2 S 32 50 17 27 1026.4 1026.3 0.0
19/02:17pm 15.3 6.2 2.1 41 5.9 SSW 39 61 21 33 1026.3 1026.2 0.0
19/02:14pm 15.9 7.4 3.4 43 5.7 SSW 37 61 20 33 1026.2 1026.1 0.0
19/02:00pm 15.7 7.9 2.8 42 5.8 SSW 33 46 18 25 1026.2 1026.1 0.0
19/01:30pm 15.3 7.6 3.5 45 5.4 SSW 33 48 18 26 1026.1 1026.0 0.0
19/01:00pm 14.4 6.0 3.5 48 4.9 SSW 37 48 20 26 1026.3 1026.2 0.0
19/12:30pm 14.5 6.6 4.2 50 4.8 SSW 35 44 19 24 1026.3 1026.2 0.0
19/12:00pm 14.8 7.6 5.1 52 4.6 SSW 32 41 17 22 1026.7 1026.5 0.0
19/11:30am 13.9 5.3 4.5 53 4.4 SSW 39 48 21 26 1026.8 1026.6 0.0
19/11:00am 13.9 5.8 5.3 56 4.0 SSW 37 48 20 26 1026.6 1026.4 0.0
19/10:30am 13.1 4.9 5.0 58 3.8 SSW 37 46 20 25 1026.3 1026.2 0.0
19/10:00am 12.5 4.6 6.1 65 3.0 SSW 37 48 20 26 1026.0 1025.9 0.0
19/09:30am 11.4 3.8 5.7 68 2.7 SSW 35 43 19 23 1025.8 1025.7 0.0
19/09:00am 10.8 3.8 6.0 72 2.2 SW 32 39 17 21 1025.4 1025.3 0.2
19/08:30am 10.2 4.0 6.0 75 2.0 SW 28 37 15 20 1025.0 1024.9 0.2
19/08:00am 9.4 3.9 5.9 79 1.6 SW 24 32 13 17 1024.4 1024.3 0.2
19/07:30am 8.7 3.6 6.0 83 1.2 SW 22 28 12 15 1023.8 1023.7 0.2
19/07:00am 8.2 3.1 6.2 87 0.9 SW 22 30 12 16 1023.2 1023.1 0.2
19/06:30am 8.2 3.6 6.3 88 0.9 SW 20 22 11 12 1022.5 1022.4 0.2
19/06:00am 8.6 3.6 6.4 86 1.0 SW 22 26 12 14 1021.9 1021.8 0.2
19/05:30am 9.1 3.8 6.7 85 1.1 SW 24 33 13 18 1021.5 1021.4 0.2
19/05:00am 9.4 3.8 7.3 87 1.0 SW 26 33 14 18 1021.0 1020.9 0.2
19/04:30am 9.8 4.0 7.9 88 0.9 SW 28 33 15 18 1020.7 1020.6 0.2
19/04:00am 10.3 4.2 8.4 88 0.9 SW 30 37 16 20 1020.3 1020.2 0.2
19/03:30am 10.8 5.3 9.1 89 0.8 SW 28 37 15 20 1020.0 1019.9 0.2
19/03:00am 11.4 6.5 9.8 90 0.8 SW 26 33 14 18 1019.7 1019.6 0.2
19/02:30am 11.5 7.1 10.4 93 0.6 SW 24 30 13 16 1019.6 1019.5 0.2
19/02:00am 11.5 7.2 10.9 96 0.3 SW 24 32 13 17 1019.4 1019.3 0.2
19/01:30am 11.5 8.1 11.2 98 0.2 SW 20 26 11 14 1019.1 1019.0 0.2
19/01:00am 11.5 7.7 11.3 99 0.1 SW 22 32 12 17 1018.9 1018.8 0.2
19/12:30am 11.6 7.5 11.3 98 0.2 SW 24 33 13 18 1018.3 1018.1 0.2
19/12:00am 12.1 6.1 10.8 92 0.7 SW 33 43 18 23 1017.9 1017.7 0.0
 
Date/Time
EST
Temp
°C
App
Temp
°C
Dew
Point
Rel
Hum
%
Delta-T
°C
Wind Press
QNH
hPa
Press
MSL
hPa
Rain
since 9 am
mm
Dir
 
Spd
km/h
Gust
km/h
Spd
kts
Gust
kts
18/11:30pm 12.5 6.9 11.6 94 0.5 SW 32 39 17 21 1017.4 1017.2 0.0
18/11:04pm 15.0 11.6 11.4 79 1.9 W 20 43 11 23 1017.0 1016.8 0.0
18/11:00pm 15.2 12.7 11.2 77 2.1 W 15 19 8 10 1016.9 1016.7 0.0
18/10:30pm 15.3 13.6 11.1 76 2.2 W 11 19 6 10 1016.7 1016.5 0.0
18/10:00pm 15.3 12.8 10.9 75 2.3 NNW 15 17 8 9 1016.4 1016.2 0.0
18/09:30pm 14.8 12.3 11.2 79 1.9 NNW 15 17 8 9 1016.4 1016.2 0.0
18/09:00pm 13.3 11.1 10.8 85 1.3 NNW 13 17 7 9 1016.2 1016.0 0.0
18/08:30pm 13.3 11.1 10.8 85 1.3 NNW 13 15 7 8 1015.9 1015.7 0.0
18/08:00pm 13.1 10.8 10.6 85 1.3 NNW 13 15 7 8 1015.6 1015.4 0.0
18/07:30pm 13.3 11.0 10.5 83 1.5 NNW 13 15 7 8 1015.2 1015.1 0.0
18/07:00pm 13.8 12.2 10.2 79 1.9 NNW 9 11 5 6 1015.0 1014.9 0.0
18/06:30pm 14.1 11.8 10.5 79 1.9 NNW 13 15 7 8 1014.9 1014.8 0.0
18/06:00pm 15.3 12.9 10.1 71 2.7 WNW 13 13 7 7 1014.5 1014.4 0.0
18/05:30pm 16.6 13.3 9.5 63 3.7 WNW 17 22 9 12 1014.4 1014.3 0.0
18/05:00pm 17.6 13.6 9.0 57 4.5 WNW 20 28 11 15 1013.9 1013.8 0.0
18/04:30pm 18.0 14.9 10.4 61 4.1 WNW 17 24 9 13 1013.9 1013.8 0.0
18/04:00pm 17.6 13.9 10.2 62 3.9 W 20 24 11 13 1013.9 1013.8 0.0
18/03:30pm 16.6 13.3 10.9 69 3.1 W 19 24 10 13 1013.9 1013.8 0.0
18/03:00pm 16.3 12.9 11.2 72 2.8 W 20 30 11 16 1014.2 1014.1 0.0
18/02:30pm 16.8 13.5 11.7 72 2.8 WSW 20 24 11 13 1013.6 1013.5 0.0
18/02:00pm 15.5 11.6 12.1 80 1.9 W 24 32 13 17 1013.9 1013.8 0.0
18/01:30pm 15.4 12.0 12.5 83 1.6 W 22 28 12 15 1014.0 1013.9 0.0
18/01:00pm 15.2 11.6 13.2 88 1.1 WSW 24 32 13 17 1014.1 1014.0 0.0
18/12:30pm 15.0 11.6 13.7 92 0.7 WSW 24 30 13 16 1014.8 1014.7 0.0
18/12:00pm 14.4 - - - - WSW 24 30 13 16 1014.7 1014.6 0.0
18/11:30am 15.4 - - - - WSW 22 26 12 14 1014.8 1014.7 0.0
18/11:00am 15.8 13.5 15.8 100 0.0 WSW 22 28 12 15 1014.9 1014.8 0.0
18/10:30am 16.3 14.8 16.3 100 0.0 WSW 19 24 10 13 1014.9 1014.8 0.0
18/10:00am 16.6 15.0 16.4 99 0.1 WSW 20 24 11 13 1015.2 1015.1 0.0
18/09:30am 17.0 16.5 17.0 100 0.0 WNW 15 20 8 11 1015.3 1015.2 0.0
18/09:00am 16.8 - - - - W 13 17 7 9 1015.2 1015.1 29.2
18/08:30am 16.4 - - - - WSW 13 17 7 9 1014.9 1014.8 29.2
18/08:00am 16.3 - - - - W 11 13 6 7 1014.7 1014.6 29.2
18/07:30am 16.3 - - - - W 9 13 5 7 1014.2 1014.1 29.2
18/07:00am 16.3 - - - - W 9 11 5 6 1013.9 1013.8 29.2
18/06:30am 16.3 - - - - WNW 6 9 3 5 1013.6 1013.5 29.2
18/06:00am 16.3 - - - - W 9 13 5 7 1013.6 1013.5 29.0
18/05:30am 16.3 - - - - W 15 20 8 11 1013.4 1013.3 29.0
18/05:00am 16.6 - - - - W 11 15 6 8 1013.2 1013.1 28.0
18/04:30am 17.9 - - - - NNW 17 24 9 13 1013.0 1012.9 27.2
18/04:00am 18.0 - - - - NNW 17 20 9 11 1013.0 1012.9 26.8
18/03:30am 18.1 17.3 18.1 100 0.0 NNW 19 26 10 14 1012.9 1012.8 26.6
18/03:00am 18.1 17.2 18.1 100 0.0 N 20 28 11 15 1013.2 1013.1 26.6
18/02:30am 18.2 17.3 18.2 100 0.0 N 20 30 11 16 1013.6 1013.5 26.4
18/02:00am 18.2 17.3 18.2 100 0.0 N 20 30 11 16 1013.9 1013.8 26.4
18/01:30am 18.1 16.8 18.1 100 0.0 N 22 30 12 16 1013.3 1013.2 26.0
18/01:00am 18.0 - - - - N 15 20 8 11 1013.9 1013.8 25.4
18/12:30am 17.9 - - - - NNE 20 28 11 15 1013.8 1013.7 25.2
18/12:00am 17.8 - - - - NNE 19 24 10 13 1014.2 1014.1 25.2
 
Date/Time
EST
Temp
°C
App
Temp
°C
Dew
Point
Rel
Hum
%
Delta-T
°C
Wind Press
QNH
hPa
Press
MSL
hPa
Rain
since 9 am
mm
Dir
 
Spd
km/h
Gust
km/h
Spd
kts
Gust
kts
17/11:30pm 17.5 - - - - NNE 20 28 11 15 1014.4 1014.3 25.0
17/11:00pm 17.2 - - - - NE 19 22 10 12 1014.8 1014.7 25.0
17/10:30pm 17.0 - - - - NE 17 19 9 10 1015.6 1015.4 25.0
17/10:00pm 16.8 - - - - NE 13 17 7 9 1015.9 1015.7 24.2
17/09:30pm 16.6 - - - - NE 13 17 7 9 1016.2 1016.0 24.0
17/09:00pm 16.4 - - - - E 19 24 10 13 1015.1 1015.0 23.6
17/08:30pm 16.4 - - - - ENE 11 13 6 7 1016.3 1016.1 23.0
17/08:00pm 16.6 - - - - CALM 0 4 0 2 1016.5 1016.3 22.6
17/07:30pm 16.5 - - - - NNE 9 15 5 8 1016.8 1016.6 22.4
17/07:00pm 16.2 - - - - NNE 15 19 8 10 1017.0 1016.8 21.2
17/06:30pm 16.1 - - - - NNE 17 26 9 14 1016.8 1016.6 20.6
17/06:00pm 15.5 - - - - NE 20 26 11 14 1016.1 1015.9 19.8
17/05:30pm 15.0 - - - - NE 15 20 8 11 1016.6 1016.4 18.2
17/05:00pm 14.7 - - - - ENE 15 20 8 11 1016.6 1016.4 17.8
17/04:30pm 14.8 - - - - E 17 22 9 12 1016.8 1016.6 16.6
17/04:00pm 14.6 - 14.7 - - ENE 13 19 7 10 1017.0 1016.8 16.4
17/03:30pm 14.4 12.0 14.4 100 0.0 ENE 20 28 11 15 1017.0 1016.8 14.0
17/03:00pm 14.6 11.9 14.6 100 0.0 E 22 30 12 16 1017.3 1017.1 12.2
17/02:30pm 14.2 12.3 14.2 100 0.0 ESE 17 20 9 11 1017.9 1017.7 12.2
17/02:00pm 14.1 12.6 14.1 100 0.0 ESE 15 20 8 11 1018.4 1018.3 11.6
17/01:30pm 14.0 13.2 14.0 100 0.0 ESE 11 13 6 7 1019.4 1019.3 10.4
17/01:00pm 14.0 13.1 13.8 99 0.1 ESE 11 15 6 8 1019.8 1019.7 7.2
17/12:30pm 14.1 12.1 13.8 98 0.2 SE 17 20 9 11 1019.7 1019.6 3.6
17/12:00pm 13.9 12.1 13.4 97 0.3 ESE 15 20 8 11 1020.5 1020.4 3.2
17/11:30am 14.1 12.7 13.5 96 0.3 SE 13 19 7 10 1021.0 1020.9 2.2
17/11:00am 13.9 12.4 13.1 95 0.4 SE 13 17 7 9 1021.8 1021.7 1.4

Other Formats:

Comma delimited format used in spreadsheet applications
http://www.bom.gov.au/fwo/IDN60801/IDN60801.95869.axf

JavaScript Object Notation format (JSON) in row-major order
http://www.bom.gov.au/fwo/IDN60801/IDN60801.95869.json